Terminal Aerodrome Forecast
Issued by NWS

Home | Current Version | Previous Version | Text Only | Print | Product List | Glossary On
Versions: 1 2 3 4 5 6 7 8 9 10 11 12 13 14 15 16 17 18 19 20 21 22 23 24 25 26 27 28 29 30 31 32 33 34 35 36 37 38 39 40 41 42
059
FTUS43 KDMX 141004 AAA
TAFFOD
TAF AMD
KFOD 141004Z 1410/1506 14013G19KT P6SM -SN SCT015 BKN040
     FM141200 15012G19KT 1SM -SN OVC011
     FM141400 15011KT 4SM -SN BKN015
     FM141800 15008KT 5SM BR BKN025
     FM150100 16005KT 3SM BR BKN015=

USA.gov is the U.S. government's official web portal to all federal, state and local government web resources and services.